Weather at Lądowisko Niegowoniczki

Public forecast

Using degrees Celsius for public forecast. Weather courtesy of forecast.io.

Closest aviation weather report (METAR) to Lądowisko Niegowoniczki

Closest report is Katowice Wojciech Korfanty International Airport, 14.4 nm (26.7 km) WNW.

2024/06/14 11:30 (retrieved 27 minutes ago)

EPKT 141130Z 20005KT 150V240 9999 SCT047 19/07 Q1016

Closest aviation forecast (TAF) to Lądowisko Niegowoniczki

Closest forecast is Katowice Wojciech Korfanty International Airport, 14.4 nm (26.7 km) WNW.

2024/06/14 06:33 (retrieved 5 hours ago)

TAF EPKT 140530Z 1406/1506 VRB02KT 0300 FG OVC001 BECMG 1406/1408 CAVOK BECMG 1503/1506 15010KT